sensor_id;sensor_type;location;lat;lon;timestamp;pressure;altitude;pressure_sealevel;temperature;humidity
31121;BME280;17770;45.966;13.632;2023-04-04T00:01:03;100530.16;;;17.98;54.42
31121;BME280;17770;45.966;13.632;2023-04-04T00:03:29;100531.06;;;17.97;54.17
31121;BME280;17770;45.966;13.632;2023-04-04T00:05:55;100535.47;;;17.96;54.15
31121;BME280;17770;45.966;13.632;2023-04-04T00:08:21;100527.69;;;17.95;54.16
31121;BME280;17770;45.966;13.632;2023-04-04T00:10:47;100528.63;;;17.94;54.39
31121;BME280;17770;45.966;13.632;2023-04-04T00:13:13;100527.78;;;17.93;54.01
31121;BME280;17770;45.966;13.632;2023-04-04T00:15:39;100529.56;;;17.93;54.15
31121;BME280;17770;45.966;13.632;2023-04-04T00:18:05;100536.53;;;17.92;53.99
31121;BME280;17770;45.966;13.632;2023-04-04T00:20:31;100518.38;;;17.91;54.20
31121;BME280;17770;45.966;13.632;2023-04-04T00:22:57;100537.41;;;17.93;53.98
31121;BME280;17770;45.966;13.632;2023-04-04T00:25:23;100534.94;;;17.90;54.54
31121;BME280;17770;45.966;13.632;2023-04-04T00:27:49;100523.69;;;17.89;54.00
31121;BME280;17770;45.966;13.632;2023-04-04T00:30:16;100528.03;;;17.89;54.01
31121;BME280;17770;45.966;13.632;2023-04-04T00:32:41;100535.88;;;17.89;54.20
31121;BME280;17770;45.966;13.632;2023-04-04T00:35:07;100530.75;;;17.87;53.94
31121;BME280;17770;45.966;13.632;2023-04-04T00:37:33;100517.78;;;17.86;54.17
31121;BME280;17770;45.966;13.632;2023-04-04T00:40:00;100520.50;;;17.84;53.97
31121;BME280;17770;45.966;13.632;2023-04-04T00:42:26;100520.50;;;17.84;53.92
31121;BME280;17770;45.966;13.632;2023-04-04T00:44:52;100521.41;;;17.83;54.20
31121;BME280;17770;45.966;13.632;2023-04-04T00:47:21;100514.59;;;17.81;53.82
31121;BME280;17770;45.966;13.632;2023-04-04T00:49:47;100512.00;;;17.81;53.94
31121;BME280;17770;45.966;13.632;2023-04-04T00:52:13;100503.31;;;17.80;54.11
31121;BME280;17770;45.966;13.632;2023-04-04T00:54:39;100516.34;;;17.80;53.92
31121;BME280;17770;45.966;13.632;2023-04-04T00:57:06;100524.38;;;17.77;53.80
31121;BME280;17770;45.966;13.632;2023-04-04T00:59:33;100509.56;;;17.78;53.52
31121;BME280;17770;45.966;13.632;2023-04-04T01:01:59;100519.22;;;17.76;53.98
31121;BME280;17770;45.966;13.632;2023-04-04T01:04:25;100521.84;;;17.76;53.52
31121;BME280;17770;45.966;13.632;2023-04-04T01:06:53;100517.56;;;17.75;53.84
31121;BME280;17770;45.966;13.632;2023-04-04T01:09:19;100523.69;;;17.74;53.66
31121;BME280;17770;45.966;13.632;2023-04-04T01:11:45;100519.41;;;17.73;53.75
31121;BME280;17770;45.966;13.632;2023-04-04T01:14:12;100506.38;;;17.73;53.73
31121;BME280;17770;45.966;13.632;2023-04-04T01:16:39;100497.78;;;17.71;53.77
31121;BME280;17770;45.966;13.632;2023-04-04T01:19:08;100514.38;;;17.70;53.76
31121;BME280;17770;45.966;13.632;2023-04-04T01:21:34;100504.84;;;17.69;53.41
31121;BME280;17770;45.966;13.632;2023-04-04T01:24:01;100508.41;;;17.68;53.69
31121;BME280;17770;45.966;13.632;2023-04-04T01:26:48;100492.75;;;17.68;53.50
31121;BME280;17770;45.966;13.632;2023-04-04T01:29:14;100491.88;;;17.67;53.57
31121;BME280;17770;45.966;13.632;2023-04-04T01:31:42;100494.59;;;17.66;53.49
31121;BME280;17770;45.966;13.632;2023-04-04T01:34:17;100490.31;;;17.65;53.44
31121;BME280;17770;45.966;13.632;2023-04-04T01:39:26;100486.84;;;17.64;52.94
31121;BME280;17770;45.966;13.632;2023-04-04T01:41:53;100493.91;;;17.62;53.43
31121;BME280;17770;45.966;13.632;2023-04-04T01:44:20;100490.47;;;17.62;52.99
31121;BME280;17770;45.966;13.632;2023-04-04T01:46:51;100482.72;;;17.60;53.19
31121;BME280;17770;45.966;13.632;2023-04-04T01:49:18;100496.69;;;17.59;53.33
31121;BME280;17770;45.966;13.632;2023-04-04T01:51:44;100490.63;;;17.59;53.10
31121;BME280;17770;45.966;13.632;2023-04-04T01:54:10;100492.44;;;17.58;53.27
31121;BME280;17770;45.966;13.632;2023-04-04T01:56:36;100489.91;;;17.57;53.52
31121;BME280;17770;45.966;13.632;2023-04-04T01:59:03;100500.41;;;17.55;53.10
31121;BME280;17770;45.966;13.632;2023-04-04T02:01:28;100495.25;;;17.54;53.23
31121;BME280;17770;45.966;13.632;2023-04-04T02:03:54;100488.38;;;17.53;53.16
31121;BME280;17770;45.966;13.632;2023-04-04T02:06:20;100480.66;;;17.51;53.40
31121;BME280;17770;45.966;13.632;2023-04-04T02:08:47;100490.22;;;17.51;53.68
31121;BME280;17770;45.966;13.632;2023-04-04T02:11:13;100493.78;;;17.50;53.34
31121;BME280;17770;45.966;13.632;2023-04-04T02:13:39;100486.03;;;17.48;53.74
31121;BME280;17770;45.966;13.632;2023-04-04T02:16:09;100493.88;;;17.48;53.29
31121;BME280;17770;45.966;13.632;2023-04-04T02:18:35;100487.88;;;17.46;53.59
31121;BME280;17770;45.966;13.632;2023-04-04T02:21:01;100487.03;;;17.46;52.89
31121;BME280;17770;45.966;13.632;2023-04-04T02:23:28;100488.78;;;17.45;53.59
31121;BME280;17770;45.966;13.632;2023-04-04T02:25:53;100484.47;;;17.44;53.20
31121;BME280;17770;45.966;13.632;2023-04-04T02:28:19;100478.41;;;17.44;53.06
31121;BME280;17770;45.966;13.632;2023-04-04T02:30:46;100475.09;;;17.42;53.16
31121;BME280;17770;45.966;13.632;2023-04-04T02:33:12;100478.50;;;17.42;53.61
31121;BME280;17770;45.966;13.632;2023-04-04T02:35:38;100476.94;;;17.40;53.20
31121;BME280;17770;45.966;13.632;2023-04-04T02:38:05;100480.38;;;17.40;53.53
31121;BME280;17770;45.966;13.632;2023-04-04T02:40:43;100477.91;;;17.37;53.50
31121;BME280;17770;45.966;13.632;2023-04-04T02:43:09;100472.78;;;17.36;53.31
31121;BME280;17770;45.966;13.632;2023-04-04T02:45:36;100462.44;;;17.34;53.47
31121;BME280;17770;45.966;13.632;2023-04-04T02:48:13;100465.16;;;17.33;53.07
31121;BME280;17770;45.966;13.632;2023-04-04T02:50:45;100466.81;;;17.34;53.19
31121;BME280;17770;45.966;13.632;2023-04-04T02:53:12;100473.91;;;17.32;53.15
31121;BME280;17770;45.966;13.632;2023-04-04T02:55:38;100470.44;;;17.31;52.99
31121;BME280;17770;45.966;13.632;2023-04-04T02:58:04;100476.59;;;17.30;53.31
31121;BME280;17770;45.966;13.632;2023-04-04T03:00:30;100466.19;;;17.30;53.21
31121;BME280;17770;45.966;13.632;2023-04-04T03:02:56;100458.44;;;17.29;52.92
31121;BME280;17770;45.966;13.632;2023-04-04T03:05:28;100452.38;;;17.28;53.04
31121;BME280;17770;45.966;13.632;2023-04-04T03:07:58;100458.50;;;17.27;53.09
31121;BME280;17770;45.966;13.632;2023-04-04T03:10:26;100458.59;;;17.26;53.30
31121;BME280;17770;45.966;13.632;2023-04-04T03:12:54;100465.59;;;17.25;53.35
31121;BME280;17770;45.966;13.632;2023-04-04T03:15:22;100452.63;;;17.24;53.40
31121;BME280;17770;45.966;13.632;2023-04-04T03:17:48;100461.38;;;17.23;52.81
31121;BME280;17770;45.966;13.632;2023-04-04T03:20:14;100457.91;;;17.22;53.24
31121;BME280;17770;45.966;13.632;2023-04-04T03:22:40;100465.00;;;17.20;52.79
31121;BME280;17770;45.966;13.632;2023-04-04T03:25:07;100459.78;;;17.20;52.86
31121;BME280;17770;45.966;13.632;2023-04-04T03:27:33;100458.94;;;17.20;53.17
31121;BME280;17770;45.966;13.632;2023-04-04T03:29:59;100457.25;;;17.19;53.42
31121;BME280;17770;45.966;13.632;2023-04-04T03:32:29;100483.41;;;17.17;53.06
31121;BME280;17770;45.966;13.632;2023-04-04T03:34:56;100482.56;;;17.17;52.86
31121;BME280;17770;45.966;13.632;2023-04-04T03:37:22;100478.25;;;17.16;52.93
31121;BME280;17770;45.966;13.632;2023-04-04T03:39:48;100478.25;;;17.16;53.08
31121;BME280;17770;45.966;13.632;2023-04-04T03:42:13;100473.97;;;17.15;53.15
31121;BME280;17770;45.966;13.632;2023-04-04T03:44:40;100484.50;;;17.13;52.65
31121;BME280;17770;45.966;13.632;2023-04-04T03:47:08;100479.38;;;17.12;53.27
31121;BME280;17770;45.966;13.632;2023-04-04T03:49:34;100481.13;;;17.11;53.08
31121;BME280;17770;45.966;13.632;2023-04-04T03:52:00;100483.81;;;17.10;53.43
31121;BME280;17770;45.966;13.632;2023-04-04T03:54:29;100476.94;;;17.09;53.28
31121;BME280;17770;45.966;13.632;2023-04-04T03:56:55;100483.03;;;17.08;53.18
31121;BME280;17770;45.966;13.632;2023-04-04T03:59:21;100478.78;;;17.07;53.17
31121;BME280;17770;45.966;13.632;2023-04-04T04:01:47;100473.56;;;17.07;53.28
31121;BME280;17770;45.966;13.632;2023-04-04T04:04:13;100469.34;;;17.04;52.79
31121;BME280;17770;45.966;13.632;2023-04-04T04:06:39;100476.34;;;17.04;52.82
31121;BME280;17770;45.966;13.632;2023-04-04T04:09:05;100472.03;;;17.03;53.18
31121;BME280;17770;45.966;13.632;2023-04-04T04:11:31;100469.50;;;17.01;53.00
31121;BME280;17770;45.966;13.632;2023-04-04T04:13:58;100473.91;;;17.01;53.26
31121;BME280;17770;45.966;13.632;2023-04-04T04:16:25;100473.06;;;17.00;52.90
31121;BME280;17770;45.966;13.632;2023-04-04T04:18:52;100478.25;;;17.00;52.68
31121;BME280;17770;45.966;13.632;2023-04-04T04:21:30;100478.34;;;16.99;52.72
31121;BME280;17770;45.966;13.632;2023-04-04T04:23:56;100481.84;;;16.98;52.81
31121;BME280;17770;45.966;13.632;2023-04-04T04:26:21;100482.78;;;16.97;53.03
31121;BME280;17770;45.966;13.632;2023-04-04T04:28:47;100485.41;;;16.97;52.84
31121;BME280;17770;45.966;13.632;2023-04-04T04:31:18;100494.16;;;16.96;53.25
31121;BME280;17770;45.966;13.632;2023-04-04T04:33:47;100485.56;;;16.93;52.90
31121;BME280;17770;45.966;13.632;2023-04-04T04:36:13;100481.25;;;16.92;53.09
31121;BME280;17770;45.966;13.632;2023-04-04T04:38:59;100493.38;;;16.93;53.07
31121;BME280;17770;45.966;13.632;2023-04-04T04:41:28;100485.66;;;16.92;52.74
31121;BME280;17770;45.966;13.632;2023-04-04T04:43:54;100496.16;;;16.90;52.68
31121;BME280;17770;45.966;13.632;2023-04-04T04:46:24;100495.31;;;16.90;52.93
31121;BME280;17770;45.966;13.632;2023-04-04T04:48:50;100504.78;;;16.91;52.92
31121;BME280;17770;45.966;13.632;2023-04-04T04:51:19;100496.25;;;16.89;53.34
31121;BME280;17770;45.966;13.632;2023-04-04T04:53:50;100492.78;;;16.88;52.91
31121;BME280;17770;45.966;13.632;2023-04-04T04:56:15;100502.34;;;16.88;52.95
31121;BME280;17770;45.966;13.632;2023-04-04T04:58:44;100491.94;;;16.88;53.41
31121;BME280;17770;45.966;13.632;2023-04-04T05:01:18;100511.09;;;16.87;53.46
31121;BME280;17770;45.966;13.632;2023-04-04T05:03:44;100512.00;;;16.86;53.22
31121;BME280;17770;45.966;13.632;2023-04-04T05:06:15;100507.72;;;16.85;52.90
31121;BME280;17770;45.966;13.632;2023-04-04T05:08:41;100509.56;;;16.83;53.10
31121;BME280;17770;45.966;13.632;2023-04-04T05:11:25;100522.69;;;16.81;53.20
31121;BME280;17770;45.966;13.632;2023-04-04T05:13:51;100511.31;;;16.82;52.78
31121;BME280;17770;45.966;13.632;2023-04-04T05:16:17;100519.13;;;16.82;52.88
31121;BME280;17770;45.966;13.632;2023-04-04T05:18:46;100520.06;;;16.81;52.99
31121;BME280;17770;45.966;13.632;2023-04-04T05:21:12;100534.84;;;16.81;53.32
31121;BME280;17770;45.966;13.632;2023-04-04T05:23:38;100547.06;;;16.80;53.16
31121;BME280;17770;45.966;13.632;2023-04-04T05:26:05;100534.03;;;16.80;52.80
31121;BME280;17770;45.966;13.632;2023-04-04T05:28:35;100542.75;;;16.79;53.19
31121;BME280;17770;45.966;13.632;2023-04-04T05:31:03;100537.63;;;16.78;52.79
31121;BME280;17770;45.966;13.632;2023-04-04T05:33:31;100537.63;;;16.78;53.28
31121;BME280;17770;45.966;13.632;2023-04-04T05:36:07;100539.38;;;16.77;52.92
31121;BME280;17770;45.966;13.632;2023-04-04T05:38:38;100544.66;;;16.76;53.09
31121;BME280;17770;45.966;13.632;2023-04-04T05:41:05;100542.06;;;16.76;53.04
31121;BME280;17770;45.966;13.632;2023-04-04T05:43:31;100548.19;;;16.75;53.06
31121;BME280;17770;45.966;13.632;2023-04-04T05:46:06;100539.53;;;16.74;52.90
31121;BME280;17770;45.966;13.632;2023-04-04T05:48:41;100548.28;;;16.73;53.19
31121;BME280;17770;45.966;13.632;2023-04-04T05:51:07;100552.66;;;16.73;53.03
31121;BME280;17770;45.966;13.632;2023-04-04T05:53:43;100539.69;;;16.71;52.69
31121;BME280;17770;45.966;13.632;2023-04-04T05:56:14;100559.69;;;16.71;52.99
31121;BME280;17770;45.966;13.632;2023-04-04T05:58:40;100558.78;;;16.72;53.25
31121;BME280;17770;45.966;13.632;2023-04-04T06:01:07;100554.47;;;16.71;52.63
31121;BME280;17770;45.966;13.632;2023-04-04T06:03:34;100556.25;;;16.70;52.99
31121;BME280;17770;45.966;13.632;2023-04-04T06:06:01;100547.59;;;16.70;52.93
31121;BME280;17770;45.966;13.632;2023-04-04T06:08:29;100568.50;;;16.68;53.04
31121;BME280;17770;45.966;13.632;2023-04-04T06:10:55;100552.97;;;16.67;53.20
31121;BME280;17770;45.966;13.632;2023-04-04T06:13:21;100556.47;;;16.66;53.09
31121;BME280;17770;45.966;13.632;2023-04-04T06:15:53;100565.13;;;16.66;52.78
31121;BME280;17770;45.966;13.632;2023-04-04T06:18:19;100561.69;;;16.66;52.66
31121;BME280;17770;45.966;13.632;2023-04-04T06:20:45;100568.69;;;16.65;53.18
31121;BME280;17770;45.966;13.632;2023-04-04T06:23:11;100557.41;;;16.65;52.56
31121;BME280;17770;45.966;13.632;2023-04-04T06:25:42;100573.88;;;16.65;52.77
31121;BME280;17770;45.966;13.632;2023-04-04T06:28:08;100572.25;;;16.63;53.04
31121;BME280;17770;45.966;13.632;2023-04-04T06:30:34;100567.97;;;16.62;52.96
31121;BME280;17770;45.966;13.632;2023-04-04T06:33:05;100563.72;;;16.61;52.73
31121;BME280;17770;45.966;13.632;2023-04-04T06:35:33;100559.31;;;16.61;52.99
31121;BME280;17770;45.966;13.632;2023-04-04T06:38:00;100569.75;;;16.61;52.82
31121;BME280;17770;45.966;13.632;2023-04-04T06:40:27;100568.97;;;16.59;52.63
31121;BME280;17770;45.966;13.632;2023-04-04T06:42:54;100568.06;;;16.60;52.80
31121;BME280;17770;45.966;13.632;2023-04-04T06:45:25;100564.59;;;16.60;53.00
31121;BME280;17770;45.966;13.632;2023-04-04T06:47:52;100563.75;;;16.59;52.47
31121;BME280;17770;45.966;13.632;2023-04-04T06:50:21;100559.47;;;16.58;52.15
31121;BME280;17770;45.966;13.632;2023-04-04T06:52:48;100561.16;;;16.59;53.07
31121;BME280;17770;45.966;13.632;2023-04-04T06:55:14;100552.53;;;16.59;53.02
31121;BME280;17770;45.966;13.632;2023-04-04T06:57:40;100544.72;;;16.59;53.04
31121;BME280;17770;45.966;13.632;2023-04-04T07:00:07;100567.22;;;16.60;52.92
31121;BME280;17770;45.966;13.632;2023-04-04T07:02:33;100561.16;;;16.59;52.96
31121;BME280;17770;45.966;13.632;2023-04-04T07:04:59;100552.44;;;16.60;53.06
31121;BME280;17770;45.966;13.632;2023-04-04T07:07:25;100555.94;;;16.59;52.76
31121;BME280;17770;45.966;13.632;2023-04-04T07:09:51;100555.22;;;16.57;53.03
31121;BME280;17770;45.966;13.632;2023-04-04T07:12:17;100557.81;;;16.57;53.16
31121;BME280;17770;45.966;13.632;2023-04-04T07:14:42;100556.03;;;16.58;52.75
31121;BME280;17770;45.966;13.632;2023-04-04T07:17:08;100552.69;;;16.56;52.38
31121;BME280;17770;45.966;13.632;2023-04-04T07:19:34;100563.91;;;16.56;52.47
31121;BME280;17770;45.966;13.632;2023-04-04T07:22:00;100544.03;;;16.55;52.85
31121;BME280;17770;45.966;13.632;2023-04-04T07:24:26;100550.09;;;16.56;52.85
31121;BME280;17770;45.966;13.632;2023-04-04T07:26:52;100564.00;;;16.55;52.65
31121;BME280;17770;45.966;13.632;2023-04-04T07:29:18;100557.03;;;16.55;52.81
31121;BME280;17770;45.966;13.632;2023-04-04T07:31:45;100553.66;;;16.53;52.30
31121;BME280;17770;45.966;13.632;2023-04-04T07:34:12;100547.53;;;16.54;52.52
31121;BME280;17770;45.966;13.632;2023-04-04T07:36:37;100563.16;;;16.54;52.77
31121;BME280;17770;45.966;13.632;2023-04-04T07:39:03;100546.72;;;16.54;52.66
31121;BME280;17770;45.966;13.632;2023-04-04T07:41:29;100556.28;;;16.53;51.95
31121;BME280;17770;45.966;13.632;2023-04-04T07:43:55;100554.53;;;16.54;51.90
31121;BME280;17770;45.966;13.632;2023-04-04T07:46:21;100560.53;;;16.54;52.48
31121;BME280;17770;45.966;13.632;2023-04-04T07:48:47;100554.53;;;16.54;52.02
31121;BME280;17770;45.966;13.632;2023-04-04T07:51:13;100562.31;;;16.54;52.10
31121;BME280;17770;45.966;13.632;2023-04-04T07:53:39;100567.53;;;16.54;51.97
31121;BME280;17770;45.966;13.632;2023-04-04T07:56:05;100548.47;;;16.53;52.22
31121;BME280;17770;45.966;13.632;2023-04-04T07:58:32;100559.81;;;16.52;51.72
31121;BME280;17770;45.966;13.632;2023-04-04T08:00:59;100549.38;;;16.52;52.08
31121;BME280;17770;45.966;13.632;2023-04-04T08:03:24;100552.81;;;16.53;51.97
31121;BME280;17770;45.966;13.632;2023-04-04T08:05:50;100559.81;;;16.52;52.15
31121;BME280;17770;45.966;13.632;2023-04-04T08:08:16;100565.00;;;16.52;52.42
31121;BME280;17770;45.966;13.632;2023-04-04T08:10:45;100545.94;;;16.52;52.22
31121;BME280;17770;45.966;13.632;2023-04-04T08:13:11;100571.13;;;16.51;52.35
31121;BME280;17770;45.966;13.632;2023-04-04T08:15:38;100545.94;;;16.52;51.97
31121;BME280;17770;45.966;13.632;2023-04-04T08:18:03;100554.69;;;16.51;51.96
31121;BME280;17770;45.966;13.632;2023-04-04T08:20:29;100552.91;;;16.51;52.03
31121;BME280;17770;45.966;13.632;2023-04-04T08:22:55;100549.47;;;16.51;52.23
31121;BME280;17770;45.966;13.632;2023-04-04T08:25:22;100539.88;;;16.51;52.44
31121;BME280;17770;45.966;13.632;2023-04-04T08:27:47;100537.28;;;16.51;52.11
31121;BME280;17770;45.966;13.632;2023-04-04T08:30:13;100530.31;;;16.52;52.04
31121;BME280;17770;45.966;13.632;2023-04-04T08:32:40;100531.09;;;16.54;52.47
31121;BME280;17770;45.966;13.632;2023-04-04T08:35:07;100535.34;;;16.55;52.39
31121;BME280;17770;45.966;13.632;2023-04-04T08:37:33;100532.75;;;16.55;52.40
31121;BME280;17770;45.966;13.632;2023-04-04T08:40:01;100528.41;;;16.55;52.15
31121;BME280;17770;45.966;13.632;2023-04-04T08:42:27;100524.88;;;16.56;52.53
31121;BME280;17770;45.966;13.632;2023-04-04T08:44:53;100534.47;;;16.56;52.27
31121;BME280;17770;45.966;13.632;2023-04-04T08:47:19;100535.19;;;16.58;52.20
31121;BME280;17770;45.966;13.632;2023-04-04T08:49:47;100520.44;;;16.58;52.44
31121;BME280;17770;45.966;13.632;2023-04-04T08:52:14;100535.13;;;16.59;52.27
31121;BME280;17770;45.966;13.632;2023-04-04T08:54:42;100542.19;;;16.57;51.96
31121;BME280;17770;45.966;13.632;2023-04-04T08:57:09;100531.69;;;16.59;52.05
31121;BME280;17770;45.966;13.632;2023-04-04T08:59:35;100522.09;;;16.59;51.91
31121;BME280;17770;45.966;13.632;2023-04-04T09:02:13;100516.88;;;16.59;51.64
31121;BME280;17770;45.966;13.632;2023-04-04T09:04:40;100535.97;;;16.60;51.77
31121;BME280;17770;45.966;13.632;2023-04-04T09:07:07;100515.13;;;16.60;52.17
31121;BME280;17770;45.966;13.632;2023-04-04T09:09:34;100516.00;;;16.60;52.22
31121;BME280;17770;45.966;13.632;2023-04-04T09:12:02;100523.81;;;16.60;51.75
31121;BME280;17770;45.966;13.632;2023-04-04T09:14:29;100528.94;;;16.62;51.64
31121;BME280;17770;45.966;13.632;2023-04-04T09:16:56;100509.94;;;16.60;52.19
31121;BME280;17770;45.966;13.632;2023-04-04T09:19:22;100524.56;;;16.62;52.12
31121;BME280;17770;45.966;13.632;2023-04-04T09:21:48;100515.91;;;16.62;51.53
31121;BME280;17770;45.966;13.632;2023-04-04T09:24:14;100513.22;;;16.63;52.12
31121;BME280;17770;45.966;13.632;2023-04-04T09:26:47;100523.56;;;16.65;52.30
31121;BME280;17770;45.966;13.632;2023-04-04T09:29:14;100521.88;;;16.64;51.56
31121;BME280;17770;45.966;13.632;2023-04-04T09:31:42;100509.69;;;16.64;51.99
31121;BME280;17770;45.966;13.632;2023-04-04T09:34:14;100514.06;;;16.64;52.08
31121;BME280;17770;45.966;13.632;2023-04-04T09:36:41;100514.88;;;16.64;52.11
31121;BME280;17770;45.966;13.632;2023-04-04T09:39:07;100536.50;;;16.66;51.84
31121;BME280;17770;45.966;13.632;2023-04-04T09:41:33;100513.13;;;16.65;52.09
31121;BME280;17770;45.966;13.632;2023-04-04T09:43:59;100522.63;;;16.66;52.06
31121;BME280;17770;45.966;13.632;2023-04-04T09:46:25;100505.25;;;16.66;51.62
31121;BME280;17770;45.966;13.632;2023-04-04T09:48:52;100507.75;;;16.68;52.03
31121;BME280;17770;45.966;13.632;2023-04-04T09:51:20;100513.91;;;16.67;52.26
31121;BME280;17770;45.966;13.632;2023-04-04T09:53:46;100513.06;;;16.66;52.27
31121;BME280;17770;45.966;13.632;2023-04-04T09:56:12;100510.44;;;16.66;51.96
31121;BME280;17770;45.966;13.632;2023-04-04T09:58:38;100512.19;;;16.66;52.43
31121;BME280;17770;45.966;13.632;2023-04-04T10:01:08;100514.75;;;16.67;52.31
31121;BME280;17770;45.966;13.632;2023-04-04T10:03:35;100504.25;;;16.69;52.06
31121;BME280;17770;45.966;13.632;2023-04-04T10:06:01;100503.41;;;16.68;52.04
31121;BME280;17770;45.966;13.632;2023-04-04T10:08:28;100513.75;;;16.70;51.84
31121;BME280;17770;45.966;13.632;2023-04-04T10:11:04;100516.25;;;16.71;51.79
31121;BME280;17770;45.966;13.632;2023-04-04T10:13:31;100504.09;;;16.72;51.75
31121;BME280;17770;45.966;13.632;2023-04-04T10:15:58;100514.50;;;16.72;51.71
31121;BME280;17770;45.966;13.632;2023-04-04T10:18:24;100499.75;;;16.72;51.69
31121;BME280;17770;45.966;13.632;2023-04-04T10:20:51;100493.50;;;16.75;52.15
31121;BME280;17770;45.966;13.632;2023-04-04T10:23:17;100491.84;;;16.74;52.21
31121;BME280;17770;45.966;13.632;2023-04-04T10:25:44;100490.13;;;16.73;52.17
31121;BME280;17770;45.966;13.632;2023-04-04T10:28:10;100478.81;;;16.74;52.31
31121;BME280;17770;45.966;13.632;2023-04-04T10:30:39;100488.38;;;16.73;52.48
31121;BME280;17770;45.966;13.632;2023-04-04T10:33:06;100492.66;;;16.74;52.40
31121;BME280;17770;45.966;13.632;2023-04-04T10:35:36;100491.75;;;16.75;51.89
31121;BME280;17770;45.966;13.632;2023-04-04T10:38:03;100484.75;;;16.76;51.88
31121;BME280;17770;45.966;13.632;2023-04-04T10:40:34;100478.56;;;16.78;51.78
31121;BME280;17770;45.966;13.632;2023-04-04T10:43:02;100463.78;;;16.79;51.93
31121;BME280;17770;45.966;13.632;2023-04-04T10:45:29;100463.69;;;16.80;52.00
31121;BME280;17770;45.966;13.632;2023-04-04T10:47:55;100462.78;;;16.81;52.10
31121;BME280;17770;45.966;13.632;2023-04-04T10:50:21;100455.81;;;16.82;52.11
31121;BME280;17770;45.966;13.632;2023-04-04T10:52:47;100465.28;;;16.83;52.10
31121;BME280;17770;45.966;13.632;2023-04-04T10:55:14;100453.13;;;16.83;52.61
31121;BME280;17770;45.966;13.632;2023-04-04T10:57:44;100451.38;;;16.84;52.49
31121;BME280;17770;45.966;13.632;2023-04-04T11:00:15;100452.19;;;16.84;52.73
31121;BME280;17770;45.966;13.632;2023-04-04T11:02:43;100441.75;;;16.84;52.37
31121;BME280;17770;45.966;13.632;2023-04-04T11:07:43;100440.84;;;16.85;52.95
31121;BME280;17770;45.966;13.632;2023-04-04T11:10:13;100452.09;;;16.86;52.75
31121;BME280;17770;45.966;13.632;2023-04-04T11:12:43;100448.50;;;16.88;52.14
31121;BME280;17770;45.966;13.632;2023-04-04T11:15:10;100446.75;;;16.89;52.58
31121;BME280;17770;45.966;13.632;2023-04-04T11:17:41;100444.06;;;16.90;52.82
31121;BME280;17770;45.966;13.632;2023-04-04T11:20:08;100437.91;;;16.91;52.33
31121;BME280;17770;45.966;13.632;2023-04-04T11:22:34;100442.19;;;16.92;52.64
31121;BME280;17770;45.966;13.632;2023-04-04T11:27:46;100417.75;;;16.95;52.80
31121;BME280;17770;45.966;13.632;2023-04-04T11:30:13;100421.19;;;16.96;52.92
31121;BME280;17770;45.966;13.632;2023-04-04T11:32:42;100419.41;;;16.96;53.11
31121;BME280;17770;45.966;13.632;2023-04-04T11:35:11;100423.72;;;16.97;52.86
31121;BME280;17770;45.966;13.632;2023-04-04T11:37:57;100422.69;;;17.00;52.32
31121;BME280;17770;45.966;13.632;2023-04-04T11:40:38;100430.50;;;17.00;52.39
31121;BME280;17770;45.966;13.632;2023-04-04T11:43:08;100424.31;;;17.02;52.58
31121;BME280;17770;45.966;13.632;2023-04-04T11:45:35;100417.31;;;17.03;52.46
31121;BME280;17770;45.966;13.632;2023-04-04T11:48:04;100413.81;;;17.04;52.69
31121;BME280;17770;45.966;13.632;2023-04-04T11:50:35;100414.53;;;17.06;52.36
31121;BME280;17770;45.966;13.632;2023-04-04T11:53:06;100412.78;;;17.06;52.59
31121;BME280;17770;45.966;13.632;2023-04-04T11:55:37;100408.34;;;17.08;52.45
31121;BME280;17770;45.966;13.632;2023-04-04T11:58:12;100395.22;;;17.10;52.75
31121;BME280;17770;45.966;13.632;2023-04-04T12:00:39;100402.09;;;17.11;52.40
31121;BME280;17770;45.966;13.632;2023-04-04T12:03:06;100404.69;;;17.11;52.68
31121;BME280;17770;45.966;13.632;2023-04-04T12:05:36;100403.69;;;17.13;52.95
31121;BME280;17770;45.966;13.632;2023-04-04T12:08:02;100398.50;;;17.13;52.34
31121;BME280;17770;45.966;13.632;2023-04-04T12:10:29;100387.13;;;17.14;52.43
31121;BME280;17770;45.966;13.632;2023-04-04T12:12:57;100388.81;;;17.15;52.45
31121;BME280;17770;45.966;13.632;2023-04-04T12:15:23;100376.56;;;17.17;52.79
31121;BME280;17770;45.966;13.632;2023-04-04T12:17:49;100384.38;;;17.17;53.00
31121;BME280;17770;45.966;13.632;2023-04-04T12:20:18;100374.78;;;17.18;53.11
31121;BME280;17770;45.966;13.632;2023-04-04T12:22:47;100379.91;;;17.19;52.68
31121;BME280;17770;45.966;13.632;2023-04-04T12:25:13;100373.78;;;17.20;52.69
31121;BME280;17770;45.966;13.632;2023-04-04T12:27:39;100382.41;;;17.21;53.10
31121;BME280;17770;45.966;13.632;2023-04-04T12:30:06;100378.06;;;17.21;53.01
31121;BME280;17770;45.966;13.632;2023-04-04T12:32:41;100357.97;;;17.23;53.39
31121;BME280;17770;45.966;13.632;2023-04-04T12:35:07;100371.00;;;17.23;52.72
31121;BME280;17770;45.966;13.632;2023-04-04T12:37:34;100376.13;;;17.25;53.00
31121;BME280;17770;45.966;13.632;2023-04-04T12:40:01;100360.38;;;17.26;52.68
31121;BME280;17770;45.966;13.632;2023-04-04T12:42:27;100361.22;;;17.27;52.93
31121;BME280;17770;45.966;13.632;2023-04-04T12:44:55;100347.25;;;17.28;52.69
31121;BME280;17770;45.966;13.632;2023-04-04T12:47:21;100348.13;;;17.28;53.54
31121;BME280;17770;45.966;13.632;2023-04-04T12:49:49;100357.69;;;17.28;53.53